Time;durP1;ratioP1;P1;durP2;ratioP2;P2;SDS_P1;SDS_P2;PMS_P1;PMS_P2;Temp;Humidity;BMP_temperature;BMP_pressure;BME280_temperature;BME280_humidity;BME280_pressure;Samples;Min_cycle;Max_cycle;Signal;HPM_P1;HPM_P2
2022/07/11 00:01:16;;;;;;;1.80;1.20;;;26.30;53.00;;;;;;4934322;29;20496;-69
2022/07/11 00:03:45;;;;;;;2.20;0.90;;;26.30;52.90;;;;;;4933164;29;20568;-69
2022/07/11 00:06:14;;;;;;;1.50;1.27;;;26.30;53.00;;;;;;4934604;29;20450;-69
2022/07/11 00:08:42;;;;;;;1.93;1.13;;;26.30;53.00;;;;;;4922025;29;20494;-69
2022/07/11 00:11:12;;;;;;;2.43;1.53;;;26.30;53.00;;;;;;4918999;29;20509;-69
2022/07/11 00:13:40;;;;;;;1.60;1.30;;;26.20;53.00;;;;;;4939635;29;20451;-69
2022/07/11 00:16:09;;;;;;;2.30;1.30;;;26.20;52.90;;;;;;4940275;29;20910;-69
2022/07/11 00:18:40;;;;;;;2.57;1.33;;;26.20;53.00;;;;;;4939600;29;20469;-69
2022/07/11 00:21:08;;;;;;;1.30;1.20;;;26.20;52.90;;;;;;4940743;29;20451;-69
2022/07/11 00:23:36;;;;;;;2.70;1.50;;;26.20;52.90;;;;;;4940493;29;20984;-69
2022/07/11 00:26:09;;;;;;;1.97;1.37;;;26.20;52.80;;;;;;4934003;29;20865;-69
2022/07/11 00:28:39;;;;;;;2.30;1.20;;;26.10;53.20;;;;;;4940833;29;20475;-69
2022/07/11 00:31:08;;;;;;;1.80;1.33;;;26.10;53.10;;;;;;4935162;29;20471;-69
2022/07/11 00:33:37;;;;;;;2.50;1.47;;;26.10;52.90;;;;;;4939287;29;21175;-68
2022/07/11 00:36:07;;;;;;;1.80;1.17;;;26.10;52.90;;;;;;4930468;29;20458;-68
2022/07/11 00:38:35;;;;;;;1.90;1.20;;;26.10;52.90;;;;;;4925608;29;20469;-69
2022/07/11 00:41:05;;;;;;;2.33;1.40;;;26.10;52.90;;;;;;4936636;29;20451;-68
2022/07/11 00:43:35;;;;;;;2.43;1.30;;;26.00;52.60;;;;;;4922117;29;20439;-69
2022/07/11 00:46:09;;;;;;;2.30;1.70;;;26.00;53.00;;;;;;4922202;29;20474;-69
2022/07/11 00:48:38;;;;;;;2.43;1.37;;;26.00;53.00;;;;;;4921953;29;20433;-69
2022/07/11 00:51:06;;;;;;;1.80;1.30;;;26.00;53.10;;;;;;4921610;29;20515;-69
2022/07/11 00:53:36;;;;;;;2.87;1.20;;;26.00;53.00;;;;;;4932245;29;20478;-69
2022/07/11 00:56:09;;;;;;;1.40;1.27;;;26.00;53.10;;;;;;4940374;29;20498;-69
2022/07/11 00:58:37;;;;;;;2.50;1.23;;;26.00;53.20;;;;;;4940210;29;20878;-68
2022/07/11 01:01:07;;;;;;;2.30;1.47;;;25.90;53.00;;;;;;4939570;29;20433;-69
2022/07/11 01:03:39;;;;;;;1.27;0.93;;;25.90;53.00;;;;;;4938754;29;20461;-72
2022/07/11 01:06:08;;;;;;;1.90;1.17;;;25.90;53.00;;;;;;4939737;29;20494;-69
2022/07/11 01:08:38;;;;;;;1.60;1.10;;;25.90;53.00;;;;;;4938749;29;20528;-69
2022/07/11 01:11:09;;;;;;;2.07;1.27;;;25.90;53.00;;;;;;4935733;29;20510;-68
2022/07/11 01:13:37;;;;;;;2.23;1.70;;;25.90;53.10;;;;;;4921199;29;20417;-69
2022/07/11 01:16:15;;;;;;;1.83;1.30;;;25.90;53.00;;;;;;4921384;29;20438;-70
2022/07/11 01:18:45;;;;;;;1.70;1.30;;;25.80;53.20;;;;;;4921718;29;20533;-69
2022/07/11 01:21:29;;;;;;;2.80;1.33;;;25.80;53.10;;;;;;4921597;29;20473;-69
2022/07/11 01:24:00;;;;;;;1.20;1.00;;;25.80;53.00;;;;;;4916801;29;20486;-69
2022/07/11 01:26:30;;;;;;;1.57;1.00;;;25.80;53.10;;;;;;4917753;29;20476;-68
2022/07/11 01:29:06;;;;;;;1.63;1.20;;;25.80;53.00;;;;;;4918267;29;20442;-69
2022/07/11 01:31:34;;;;;;;1.37;1.13;;;25.80;53.10;;;;;;4921530;29;20474;-69
2022/07/11 01:34:03;;;;;;;3.50;1.10;;;25.80;53.10;;;;;;4932213;29;20527;-71
2022/07/11 01:36:31;;;;;;;1.50;1.30;;;25.80;53.10;;;;;;4925761;29;20442;-70
2022/07/11 01:39:01;;;;;;;3.40;1.57;;;25.70;53.00;;;;;;4920735;29;20447;-69
2022/07/11 01:41:29;;;;;;;1.83;1.30;;;25.70;53.20;;;;;;4924913;29;20458;-68
2022/07/11 01:43:57;;;;;;;1.37;1.13;;;25.70;53.10;;;;;;4935598;29;20483;-68
2022/07/11 01:46:25;;;;;;;1.60;1.10;;;25.70;53.10;;;;;;4934952;29;20463;-69
2022/07/11 01:48:54;;;;;;;1.53;1.13;;;25.70;53.10;;;;;;4936200;29;20973;-71
2022/07/11 01:51:24;;;;;;;2.53;1.47;;;25.70;53.20;;;;;;4935195;29;20499;-68
2022/07/11 01:53:54;;;;;;;1.57;1.00;;;25.70;53.10;;;;;;4935452;29;20483;-69
2022/07/11 01:56:24;;;;;;;1.97;1.40;;;25.70;53.10;;;;;;4919145;29;20458;-68
2022/07/11 01:58:59;;;;;;;3.03;1.40;;;25.70;53.30;;;;;;4934616;29;20440;-69
2022/07/11 02:01:29;;;;;;;1.90;1.43;;;25.70;53.30;;;;;;4935539;29;20492;-68
2022/07/11 02:03:57;;;;;;;2.17;1.17;;;25.70;53.20;;;;;;4936198;29;20485;-68
2022/07/11 02:06:25;;;;;;;1.30;1.03;;;25.60;53.30;;;;;;4935487;29;20501;-72
2022/07/11 02:08:54;;;;;;;2.53;1.40;;;25.60;53.30;;;;;;4934665;29;20464;-74
2022/07/11 02:11:23;;;;;;;1.50;1.27;;;25.60;53.20;;;;;;4935899;29;20479;-69
2022/07/11 02:13:52;;;;;;;3.57;1.40;;;25.60;53.40;;;;;;4935900;29;20469;-68
2022/07/11 02:16:21;;;;;;;2.30;1.40;;;25.60;53.20;;;;;;4934516;29;20486;-68
2022/07/11 02:18:50;;;;;;;2.50;1.43;;;25.60;53.30;;;;;;4937138;29;20466;-68
2022/07/11 02:21:19;;;;;;;1.40;1.10;;;25.60;53.50;;;;;;4936359;29;20455;-68
2022/07/11 02:23:50;;;;;;;1.50;1.00;;;25.60;53.40;;;;;;4933139;29;20482;-68
2022/07/11 02:26:18;;;;;;;1.80;1.20;;;25.50;53.40;;;;;;4920219;29;20490;-69
2022/07/11 02:28:48;;;;;;;2.30;1.50;;;25.60;53.50;;;;;;4930277;29;20512;-69
2022/07/11 02:31:16;;;;;;;2.47;1.60;;;25.50;53.30;;;;;;4932571;29;20476;-68
2022/07/11 02:33:44;;;;;;;1.53;1.20;;;25.50;53.10;;;;;;4936536;29;20449;-68
2022/07/11 02:36:14;;;;;;;1.50;1.00;;;25.50;53.40;;;;;;4917003;29;20465;-71
2022/07/11 02:38:43;;;;;;;2.40;1.60;;;25.50;53.40;;;;;;4917051;29;20490;-68
2022/07/11 02:41:12;;;;;;;1.57;1.27;;;25.50;53.30;;;;;;4919154;29;20929;-69
2022/07/11 02:43:40;;;;;;;2.17;1.30;;;25.50;53.30;;;;;;4935531;29;20521;-68
2022/07/11 02:46:10;;;;;;;1.80;1.30;;;25.50;53.30;;;;;;4930187;29;20469;-68
2022/07/11 02:48:38;;;;;;;1.37;0.93;;;25.50;53.30;;;;;;4929155;29;20465;-68
2022/07/11 02:51:06;;;;;;;1.60;1.20;;;25.40;53.40;;;;;;4933394;29;20500;-70
2022/07/11 02:53:35;;;;;;;2.27;1.40;;;25.40;53.30;;;;;;4931541;29;20446;-68
2022/07/11 02:56:06;;;;;;;1.40;1.00;;;25.40;53.40;;;;;;4930877;29;20458;-68
2022/07/11 02:58:34;;;;;;;3.93;1.40;;;25.40;53.40;;;;;;4916799;29;20450;-68
2022/07/11 03:01:05;;;;;;;1.87;1.10;;;25.40;53.40;;;;;;4924325;29;20466;-68
2022/07/11 03:03:34;;;;;;;3.33;1.40;;;25.40;53.30;;;;;;4923409;29;20556;-68
2022/07/11 03:06:06;;;;;;;2.40;1.10;;;25.40;53.40;;;;;;4934653;29;20458;-68
2022/07/11 03:08:34;;;;;;;1.80;1.43;;;25.40;53.40;;;;;;4933846;29;20461;-68
2022/07/11 03:11:05;;;;;;;2.53;1.50;;;25.40;53.20;;;;;;4933411;29;20892;-68
2022/07/11 03:13:35;;;;;;;1.13;0.87;;;25.30;53.10;;;;;;4920750;29;20914;-68
2022/07/11 03:16:06;;;;;;;2.63;1.03;;;25.30;53.30;;;;;;4915372;29;20452;-68
2022/07/11 03:18:36;;;;;;;1.93;1.27;;;25.30;53.30;;;;;;4931817;29;20996;-68
2022/07/11 03:21:08;;;;;;;1.47;1.00;;;25.30;53.40;;;;;;4933842;29;20854;-68
2022/07/11 03:23:36;;;;;;;1.60;1.20;;;25.30;53.30;;;;;;4915360;29;20492;-68
2022/07/11 03:26:07;;;;;;;1.33;1.13;;;25.30;53.40;;;;;;4927811;29;20568;-68
2022/07/11 03:28:35;;;;;;;2.30;1.20;;;25.40;53.30;;;;;;4915097;29;20852;-70
2022/07/11 03:31:06;;;;;;;4.07;1.20;;;25.30;53.40;;;;;;4932744;29;20589;-68
2022/07/11 03:33:35;;;;;;;2.20;1.57;;;25.30;53.40;;;;;;4933567;29;20998;-68
2022/07/11 03:36:07;;;;;;;2.17;1.50;;;25.30;53.30;;;;;;4934180;29;20477;-68
2022/07/11 03:38:35;;;;;;;1.70;1.13;;;25.30;53.30;;;;;;4933082;29;20517;-68
2022/07/11 03:41:06;;;;;;;2.20;1.43;;;25.30;53.40;;;;;;4933450;29;20453;-68
2022/07/11 03:43:34;;;;;;;1.40;1.00;;;25.30;53.50;;;;;;4927352;29;20466;-69
2022/07/11 03:46:08;;;;;;;1.43;1.30;;;25.30;53.50;;;;;;4928148;29;20515;-68
2022/07/11 03:48:38;;;;;;;1.50;1.30;;;25.30;53.60;;;;;;4932541;29;20445;-68
2022/07/11 03:51:06;;;;;;;1.30;1.03;;;25.30;53.60;;;;;;4934121;29;20461;-68
2022/07/11 03:53:35;;;;;;;1.83;1.13;;;25.30;53.60;;;;;;4932968;29;20455;-68
2022/07/11 03:56:10;;;;;;;1.60;1.30;;;25.30;53.50;;;;;;4933276;29;20525;-69
2022/07/11 03:58:38;;;;;;;1.60;1.20;;;25.30;53.60;;;;;;4932874;29;20491;-68
2022/07/11 04:01:06;;;;;;;1.47;1.07;;;25.30;53.70;;;;;;4932040;29;20607;-68
2022/07/11 04:03:35;;;;;;;3.33;1.13;;;25.30;53.60;;;;;;4914951;29;20456;-69
2022/07/11 04:06:07;;;;;;;1.53;1.23;;;25.30;53.60;;;;;;4931011;29;20875;-69
2022/07/11 04:08:35;;;;;;;3.20;1.50;;;25.30;53.70;;;;;;4933589;29;20452;-68
2022/07/11 04:11:06;;;;;;;1.23;1.13;;;25.30;53.70;;;;;;4932619;29;20459;-69
2022/07/11 04:13:34;;;;;;;1.60;1.40;;;25.30;53.60;;;;;;4928102;29;20486;-68
2022/07/11 04:16:06;;;;;;;2.43;1.63;;;25.30;53.80;;;;;;4932615;29;20523;-68
2022/07/11 04:18:34;;;;;;;3.70;1.30;;;25.30;53.80;;;;;;4932806;29;20450;-68
2022/07/11 04:21:06;;;;;;;2.63;1.10;;;25.30;53.70;;;;;;4931985;29;20492;-69
2022/07/11 04:23:36;;;;;;;2.27;1.10;;;25.30;53.80;;;;;;4928833;29;20495;-68
2022/07/11 04:26:07;;;;;;;2.37;1.40;;;25.30;53.80;;;;;;4931078;29;20467;-69
2022/07/11 04:28:35;;;;;;;1.30;1.10;;;25.30;53.80;;;;;;4933054;29;20514;-69
2022/07/11 04:31:07;;;;;;;1.83;1.40;;;25.30;54.00;;;;;;4929066;29;20547;-69
2022/07/11 04:33:35;;;;;;;3.93;1.37;;;25.30;54.00;;;;;;4929503;29;20495;-71
2022/07/11 04:36:08;;;;;;;1.50;1.27;;;25.30;54.10;;;;;;4927969;29;21926;-68
2022/07/11 04:38:36;;;;;;;1.53;1.20;;;25.30;54.10;;;;;;4931760;29;20455;-69
2022/07/11 04:41:07;;;;;;;1.60;1.20;;;25.30;54.10;;;;;;4929411;29;20562;-69
2022/07/11 04:43:36;;;;;;;1.83;1.30;;;25.40;54.10;;;;;;4931742;29;20495;-70
2022/07/11 04:46:07;;;;;;;4.13;1.40;;;25.40;54.20;;;;;;4931809;29;20510;-68
2022/07/11 04:48:37;;;;;;;1.33;1.13;;;25.40;54.30;;;;;;4928682;29;20492;-70
2022/07/11 04:51:07;;;;;;;2.10;1.50;;;25.40;54.20;;;;;;4925076;29;20819;-69
2022/07/11 04:53:36;;;;;;;2.60;1.37;;;25.40;54.30;;;;;;4923146;29;20585;-69
2022/07/11 04:56:08;;;;;;;2.50;1.40;;;25.40;54.20;;;;;;4927781;29;21366;-68
2022/07/11 04:58:36;;;;;;;1.83;1.40;;;25.50;54.20;;;;;;4928013;29;20481;-69
2022/07/11 05:01:07;;;;;;;1.50;1.40;;;25.50;54.30;;;;;;4932181;29;20595;-68
2022/07/11 05:03:36;;;;;;;1.60;1.27;;;25.50;54.30;;;;;;4935761;29;20468;-68
2022/07/11 05:06:08;;;;;;;4.27;1.60;;;25.50;54.30;;;;;;4936932;29;20992;-68
2022/07/11 05:08:36;;;;;;;1.73;1.30;;;25.50;54.40;;;;;;4937145;29;20459;-73
2022/07/11 05:11:07;;;;;;;3.00;1.70;;;25.50;54.50;;;;;;4932549;29;20473;-69
2022/07/11 05:13:37;;;;;;;5.87;2.20;;;25.60;54.70;;;;;;4936349;29;20474;-68
2022/07/11 05:16:06;;;;;;;2.60;1.63;;;25.60;54.80;;;;;;4936200;29;20455;-69
2022/07/11 05:18:35;;;;;;;3.47;1.40;;;25.60;54.90;;;;;;4935567;29;20454;-68
2022/07/11 05:21:07;;;;;;;3.80;2.00;;;25.60;55.00;;;;;;4936870;29;20469;-69
2022/07/11 05:23:35;;;;;;;4.13;1.90;;;25.60;55.10;;;;;;4936082;29;21282;-68
2022/07/11 05:26:07;;;;;;;4.87;1.83;;;25.60;55.20;;;;;;4930585;29;20531;-69
2022/07/11 05:28:44;;;;;;;4.50;1.67;;;25.60;55.30;;;;;;4934014;29;20958;-71
2022/07/11 05:31:12;;;;;;;2.10;1.53;;;25.60;55.30;;;;;;4927329;29;20464;-68
2022/07/11 05:33:40;;;;;;;2.63;1.50;;;25.70;55.30;;;;;;4929708;29;21006;-70
2022/07/11 05:36:10;;;;;;;2.07;1.40;;;25.70;55.30;;;;;;4932189;29;20513;-68
2022/07/11 05:38:39;;;;;;;4.00;1.80;;;25.70;55.20;;;;;;4929665;29;20458;-69
2022/07/11 05:41:07;;;;;;;7.10;1.90;;;25.70;55.20;;;;;;4927719;29;20509;-68
2022/07/11 05:43:35;;;;;;;4.70;1.23;;;25.70;55.30;;;;;;4934237;29;20508;-68
2022/07/11 05:46:06;;;;;;;1.97;1.60;;;25.70;55.30;;;;;;4934183;29;20502;-68
2022/07/11 05:48:35;;;;;;;4.70;1.57;;;25.70;55.30;;;;;;4932743;29;20464;-71
2022/07/11 05:51:06;;;;;;;2.57;1.70;;;25.70;55.30;;;;;;4927509;29;20485;-71
2022/07/11 05:53:36;;;;;;;5.17;2.50;;;25.70;55.40;;;;;;4924737;29;20540;-71
2022/07/11 05:56:07;;;;;;;6.27;1.90;;;25.70;55.40;;;;;;4931361;29;20487;-72
2022/07/11 05:58:36;;;;;;;5.23;3.07;;;25.70;55.40;;;;;;4930350;29;20511;-70
2022/07/11 06:01:08;;;;;;;4.33;1.70;;;25.80;55.40;;;;;;4931761;29;20462;-71
2022/07/11 06:03:36;;;;;;;2.70;1.63;;;25.80;55.40;;;;;;4930778;29;20794;-71
2022/07/11 06:06:07;;;;;;;4.37;1.90;;;25.80;55.40;;;;;;4931560;29;20445;-72
2022/07/11 06:08:43;;;;;;;8.47;2.33;;;25.80;55.40;;;;;;4927467;29;20534;-71
2022/07/11 06:11:12;;;;;;;4.50;1.83;;;25.80;55.40;;;;;;4927606;29;20452;-71
2022/07/11 06:13:42;;;;;;;3.63;2.03;;;25.80;55.40;;;;;;4931567;29;20514;-72
2022/07/11 06:16:11;;;;;;;3.93;1.50;;;25.80;55.40;;;;;;4931544;29;20516;-71
2022/07/11 06:18:40;;;;;;;4.17;2.03;;;25.80;55.30;;;;;;4932070;29;20554;-71
2022/07/11 06:21:08;;;;;;;4.90;1.90;;;25.90;55.30;;;;;;4926183;29;20964;-70
2022/07/11 06:23:38;;;;;;;3.27;1.60;;;25.80;55.60;;;;;;4925400;29;20490;-70
2022/07/11 06:26:07;;;;;;;2.37;1.80;;;25.90;55.80;;;;;;4927617;29;20447;-71
2022/07/11 06:28:36;;;;;;;4.50;2.33;;;25.90;55.80;;;;;;4926369;29;20496;-72
2022/07/11 06:31:07;;;;;;;2.80;2.10;;;25.90;55.90;;;;;;4920062;29;20469;-71
2022/07/11 06:33:35;;;;;;;2.93;1.40;;;25.90;55.70;;;;;;4922930;29;20481;-71
2022/07/11 06:36:07;;;;;;;5.53;1.53;;;25.90;55.70;;;;;;4924892;29;20463;-71
2022/07/11 06:38:37;;;;;;;2.80;1.90;;;26.00;55.70;;;;;;4929426;29;20461;-71
2022/07/11 06:41:05;;;;;;;6.90;2.00;;;26.00;55.60;;;;;;4925849;29;20848;-71
2022/07/11 06:43:33;;;;;;;3.00;1.97;;;26.00;55.60;;;;;;4929548;29;20508;-71
2022/07/11 06:46:05;;;;;;;2.60;1.60;;;26.00;55.60;;;;;;4934146;29;20458;-71
2022/07/11 06:48:33;;;;;;;2.67;1.70;;;26.10;55.60;;;;;;4934515;29;20465;-71
2022/07/11 06:51:04;;;;;;;1.67;1.40;;;26.10;55.50;;;;;;4930916;29;20460;-71
2022/07/11 06:53:33;;;;;;;2.30;1.50;;;26.10;55.50;;;;;;4931853;29;20482;-71
2022/07/11 06:56:05;;;;;;;4.70;1.83;;;26.10;55.50;;;;;;4932872;29;21353;-70
2022/07/11 06:58:33;;;;;;;1.90;1.50;;;26.10;55.50;;;;;;4931559;29;20498;-70
2022/07/11 07:01:05;;;;;;;1.93;1.67;;;26.20;55.40;;;;;;4930219;29;20458;-70
2022/07/11 07:03:35;;;;;;;1.80;1.57;;;26.20;55.40;;;;;;4930803;29;20447;-70
2022/07/11 07:06:06;;;;;;;2.37;1.63;;;26.20;55.40;;;;;;4932826;29;20457;-70
2022/07/11 07:08:35;;;;;;;2.73;1.70;;;26.20;55.40;;;;;;4933859;29;20502;-71
2022/07/11 07:11:06;;;;;;;2.80;1.70;;;26.30;55.30;;;;;;4932972;29;20461;-70
2022/07/11 07:13:36;;;;;;;3.73;1.60;;;26.30;55.30;;;;;;4915158;29;20505;-69
2022/07/11 07:16:08;;;;;;;3.10;2.00;;;26.30;55.30;;;;;;4934123;29;20473;-71
2022/07/11 07:18:40;;;;;;;2.63;1.70;;;26.30;55.20;;;;;;4932375;29;20534;-70
2022/07/11 07:21:09;;;;;;;4.83;2.23;;;26.30;55.20;;;;;;4934362;29;20498;-70
2022/07/11 07:23:37;;;;;;;3.30;1.57;;;26.40;55.20;;;;;;4931846;29;20474;-71
2022/07/11 07:26:08;;;;;;;2.03;1.60;;;26.40;55.20;;;;;;4930203;29;20507;-70
2022/07/11 07:28:38;;;;;;;3.30;1.70;;;26.40;55.20;;;;;;4929494;29;20463;-70
2022/07/11 07:31:06;;;;;;;2.43;2.07;;;26.40;55.10;;;;;;4929501;29;20449;-71
2022/07/11 07:33:42;;;;;;;2.83;1.43;;;26.40;55.10;;;;;;4927645;29;20486;-71
2022/07/11 07:36:13;;;;;;;2.07;1.57;;;26.50;55.10;;;;;;4930207;29;20454;-71
2022/07/11 07:38:43;;;;;;;3.83;1.67;;;26.50;55.00;;;;;;4932620;29;20721;-70
2022/07/11 07:41:15;;;;;;;2.67;1.70;;;26.50;55.00;;;;;;4932250;29;20513;-70
2022/07/11 07:43:43;;;;;;;2.70;1.80;;;26.50;54.90;;;;;;4930596;29;20838;-68
2022/07/11 07:46:11;;;;;;;2.00;1.60;;;26.60;55.00;;;;;;4929790;29;20444;-68
2022/07/11 07:48:41;;;;;;;1.93;1.60;;;26.60;55.00;;;;;;4931395;29;20465;-69
2022/07/11 07:51:10;;;;;;;2.50;1.80;;;26.60;54.90;;;;;;4933132;29;20812;-68
2022/07/11 07:53:38;;;;;;;2.00;1.57;;;26.60;54.90;;;;;;4931572;29;20488;-69
2022/07/11 07:56:07;;;;;;;3.13;1.67;;;26.60;54.90;;;;;;4930001;29;20470;-68
2022/07/11 07:58:38;;;;;;;4.27;2.13;;;26.60;54.90;;;;;;4934178;29;20522;-69
2022/07/11 08:03:52;;;;;;;3.00;1.47;;;26.60;54.90;;;;;;4932622;29;20467;-69
2022/07/11 08:06:20;;;;;;;5.33;1.73;;;26.70;54.80;;;;;;4926971;29;20651;-68
2022/07/11 08:08:49;;;;;;;4.07;1.90;;;26.70;54.80;;;;;;4931913;29;20474;-70
2022/07/11 08:11:18;;;;;;;2.23;1.57;;;26.70;54.80;;;;;;4931341;29;20458;-68
2022/07/11 08:14:00;;;;;;;2.57;2.00;;;26.70;54.80;;;;;;4925667;29;20478;-68
2022/07/11 08:16:30;;;;;;;2.83;1.90;;;26.80;54.70;;;;;;4932775;29;20958;-69
2022/07/11 08:19:00;;;;;;;2.40;1.60;;;26.80;54.70;;;;;;4932713;29;20917;-69
2022/07/11 08:21:29;;;;;;;4.60;2.33;;;26.80;54.70;;;;;;4931931;29;20451;-69
2022/07/11 08:23:57;;;;;;;3.30;1.90;;;26.80;54.60;;;;;;4932554;29;20850;-68
2022/07/11 08:26:26;;;;;;;3.30;2.17;;;26.90;54.60;;;;;;4931848;29;20459;-68
2022/07/11 08:29:03;;;;;;;2.30;1.73;;;26.90;54.60;;;;;;4931606;29;20467;-68
2022/07/11 08:31:32;;;;;;;2.73;2.07;;;26.90;54.40;;;;;;4930571;29;20453;-68
2022/07/11 08:34:02;;;;;;;2.13;1.67;;;26.90;54.40;;;;;;4933427;29;20475;-69
2022/07/11 08:36:34;;;;;;;2.53;1.47;;;26.90;54.60;;;;;;4936690;29;20462;-70
2022/07/11 08:39:03;;;;;;;2.50;1.90;;;26.90;54.50;;;;;;4934383;29;20477;-69
2022/07/11 08:41:32;;;;;;;2.10;1.73;;;27.00;54.40;;;;;;4936212;29;20456;-69
2022/07/11 08:44:02;;;;;;;3.00;1.40;;;27.00;54.30;;;;;;4935534;29;20520;-69
2022/07/11 08:46:31;;;;;;;2.00;1.47;;;27.00;54.30;;;;;;4935057;29;20467;-68
2022/07/11 08:49:03;;;;;;;2.37;1.30;;;27.00;54.30;;;;;;4918056;29;20487;-73
2022/07/11 08:51:31;;;;;;;2.20;1.33;;;27.00;54.30;;;;;;4931499;29;20523;-72
2022/07/11 08:54:00;;;;;;;2.53;1.60;;;27.00;54.10;;;;;;4934582;29;20530;-72
2022/07/11 08:56:29;;;;;;;2.67;1.40;;;27.10;54.20;;;;;;4930021;29;20461;-76
2022/07/11 08:58:59;;;;;;;2.73;1.60;;;27.10;54.30;;;;;;4927279;29;20455;-71
2022/07/11 09:01:31;;;;;;;2.80;1.70;;;27.10;54.30;;;;;;4932441;29;20462;-71
2022/07/11 09:04:01;;;;;;;4.90;2.00;;;27.10;54.30;;;;;;4914489;29;20471;-71
2022/07/11 09:06:29;;;;;;;1.70;1.50;;;27.10;54.30;;;;;;4933979;29;20489;-71
2022/07/11 09:08:59;;;;;;;2.73;1.40;;;27.10;54.40;;;;;;4926182;29;20450;-71
2022/07/11 09:11:28;;;;;;;2.30;1.33;;;27.10;54.30;;;;;;4937033;29;20454;-71
2022/07/11 09:13:56;;;;;;;2.67;1.20;;;27.10;54.30;;;;;;4934706;29;20446;-71
2022/07/11 09:16:28;;;;;;;2.50;1.40;;;27.10;54.40;;;;;;4936578;29;20455;-73
2022/07/11 09:19:01;;;;;;;2.07;1.40;;;27.00;54.40;;;;;;4936598;29;20470;-71
2022/07/11 09:27:00;;;;;;;2.07;1.33;;;27.00;54.40;;;;;;4934078;29;20460;-71
2022/07/11 09:29:28;;;;;;;2.90;1.40;;;27.10;54.40;;;;;;4933524;29;20515;-72
2022/07/11 09:31:57;;;;;;;1.53;1.23;;;27.10;54.40;;;;;;4934530;29;20451;-72
2022/07/11 09:34:28;;;;;;;1.40;1.20;;;27.10;54.40;;;;;;4934358;29;20798;-72
2022/07/11 09:36:57;;;;;;;2.30;1.30;;;27.10;54.30;;;;;;4935993;29;20452;-73
2022/07/11 09:39:27;;;;;;;1.50;1.20;;;27.10;54.30;;;;;;4935806;29;20546;-72
2022/07/11 09:41:56;;;;;;;3.13;1.83;;;27.10;54.30;;;;;;4936252;29;20440;-71
2022/07/11 09:44:28;;;;;;;1.60;1.40;;;27.10;54.30;;;;;;4933637;29;20512;-71
2022/07/11 09:46:58;;;;;;;1.80;1.40;;;27.20;54.30;;;;;;4932055;29;20443;-74
2022/07/11 09:49:35;;;;;;;1.63;1.20;;;27.20;54.30;;;;;;4934999;29;20466;-72
2022/07/11 09:52:11;;;;;;;1.90;1.20;;;27.20;54.30;;;;;;4935498;29;20469;-71
2022/07/11 09:54:56;;;;;;;2.90;1.57;;;27.20;54.20;;;;;;4923673;29;20467;-71
2022/07/11 09:57:33;;;;;;;1.50;1.30;;;27.30;54.20;;;;;;4930714;29;20489;-71
2022/07/11 10:00:02;;;;;;;1.70;1.30;;;27.30;54.20;;;;;;4917022;29;20893;-72
2022/07/11 10:02:31;;;;;;;1.70;1.50;;;27.30;54.10;;;;;;4935031;29;20530;-71
2022/07/11 10:05:02;;;;;;;2.83;1.80;;;27.30;54.10;;;;;;4933383;29;20459;-72
2022/07/11 10:07:31;;;;;;;3.10;1.37;;;27.30;54.00;;;;;;4924648;29;20462;-72
2022/07/11 10:10:00;;;;;;;1.40;1.03;;;27.30;54.00;;;;;;4932154;29;20462;-72
2022/07/11 10:12:29;;;;;;;3.57;1.33;;;27.40;53.90;;;;;;4935753;29;20475;-74
2022/07/11 10:14:59;;;;;;;1.50;1.40;;;27.40;53.90;;;;;;4931425;29;21058;-72
2022/07/11 10:17:34;;;;;;;1.50;1.30;;;27.40;53.90;;;;;;4936032;29;20450;-74
2022/07/11 10:20:12;;;;;;;1.33;1.03;;;27.40;53.90;;;;;;4936199;29;20822;-70
2022/07/11 10:22:45;;;;;;;1.80;1.43;;;27.40;53.90;;;;;;4932423;29;20467;-70
2022/07/11 10:25:20;;;;;;;2.80;1.40;;;27.40;53.90;;;;;;4932705;29;20464;-70
2022/07/11 10:28:04;;;;;;;1.93;1.30;;;27.40;53.90;;;;;;4927373;29;20507;-72
2022/07/11 10:30:44;;;;;;;2.00;1.20;;;27.40;53.90;;;;;;4914908;29;20931;-71
2022/07/11 10:33:13;;;;;;;1.80;1.37;;;27.40;53.90;;;;;;4928026;29;20530;-71
2022/07/11 10:35:45;;;;;;;1.90;1.40;;;27.40;53.90;;;;;;4935307;29;20974;-71
2022/07/11 10:38:14;;;;;;;1.63;1.20;;;27.50;53.80;;;;;;4932749;29;20467;-71
2022/07/11 10:40:45;;;;;;;2.90;1.20;;;27.50;53.80;;;;;;4934105;29;20483;-71
2022/07/11 10:43:15;;;;;;;1.30;1.00;;;27.50;53.80;;;;;;4935545;29;20484;-72
2022/07/11 10:45:55;;;;;;;1.27;1.00;;;27.50;53.80;;;;;;4925874;29;20845;-74
2022/07/11 10:48:24;;;;;;;3.67;1.47;;;27.50;53.80;;;;;;4935452;29;20450;-71
2022/07/11 10:51:23;;;;;;;2.00;1.27;;;27.50;53.70;;;;;;4928140;29;20483;-72
2022/07/11 10:53:53;;;;;;;1.93;1.10;;;27.60;53.60;;;;;;4911413;29;20457;-71
2022/07/11 10:56:54;;;;;;;1.40;1.00;;;27.60;53.60;;;;;;4935240;29;20533;-71
2022/07/11 10:59:23;;;;;;;2.60;1.10;;;27.60;53.60;;;;;;4931576;29;20452;-70
2022/07/11 11:02:20;;;;;;;2.80;1.10;;;27.60;53.70;;;;;;4913107;29;20460;-70
2022/07/11 11:04:50;;;;;;;1.53;1.23;;;27.50;53.70;;;;;;4935395;29;20928;-71
2022/07/11 11:07:40;;;;;;;5.10;1.23;;;27.50;53.70;;;;;;4936316;29;20531;-71
2022/07/11 11:10:46;;;;;;;1.83;0.87;;;27.50;53.70;;;;;;4923613;29;20451;-71
2022/07/11 11:13:19;;;;;;;1.77;1.03;;;27.50;53.70;;;;;;4928179;29;20516;-70
2022/07/11 11:15:50;;;;;;;2.67;1.33;;;27.50;53.70;;;;;;4935874;29;20558;-70
2022/07/11 11:18:41;;;;;;;1.73;0.93;;;27.50;53.60;;;;;;4935471;29;20449;-72
2022/07/11 11:21:31;;;;;;;1.50;1.03;;;27.50;53.60;;;;;;4930301;29;20559;-70
2022/07/11 11:24:08;;;;;;;1.43;1.20;;;27.50;53.50;;;;;;4933646;29;20998;-71
2022/07/11 11:26:48;;;;;;;2.47;1.10;;;27.50;53.50;;;;;;4914118;29;20458;-70
2022/07/11 11:29:24;;;;;;;1.40;1.00;;;27.60;53.40;;;;;;4932181;29;20520;-72
2022/07/11 11:31:55;;;;;;;1.50;1.00;;;27.60;53.40;;;;;;4914125;29;20959;-70
2022/07/11 11:34:24;;;;;;;1.13;0.80;;;27.60;53.20;;;;;;4928236;29;20446;-70
2022/07/11 11:36:54;;;;;;;1.27;0.80;;;27.70;53.20;;;;;;4924758;29;20470;-70
2022/07/11 11:39:26;;;;;;;1.63;1.10;;;27.70;53.10;;;;;;4928996;29;20468;-75
2022/07/11 11:41:55;;;;;;;1.67;1.00;;;27.70;53.10;;;;;;4934822;29;20466;-71
2022/07/11 11:44:23;;;;;;;1.57;1.00;;;27.70;53.00;;;;;;4916169;29;20540;-70
2022/07/11 11:46:53;;;;;;;1.90;1.20;;;27.70;53.00;;;;;;4931214;29;20780;-70
2022/07/11 11:49:21;;;;;;;1.40;1.13;;;27.70;53.00;;;;;;4925354;29;20473;-70
2022/07/11 11:51:50;;;;;;;2.17;1.07;;;27.70;53.00;;;;;;4911985;29;20557;-70
2022/07/11 11:54:26;;;;;;;2.50;1.13;;;27.60;53.00;;;;;;4931530;29;20442;-75
2022/07/11 11:56:57;;;;;;;1.77;0.93;;;27.60;53.10;;;;;;4931338;29;20491;-70
2022/07/11 11:59:31;;;;;;;2.30;1.23;;;27.60;53.10;;;;;;4927546;29;20471;-70
2022/07/11 12:02:00;;;;;;;3.50;0.97;;;27.60;53.10;;;;;;4914913;29;20471;-71
2022/07/11 12:04:33;;;;;;;2.63;0.90;;;27.50;53.20;;;;;;4928785;29;20465;-75
2022/07/11 12:07:02;;;;;;;1.40;1.13;;;27.50;53.30;;;;;;4914450;29;20532;-71
2022/07/11 12:09:47;;;;;;;1.07;0.80;;;27.50;53.20;;;;;;4915680;29;20460;-74
2022/07/11 12:15:08;;;;;;;1.70;1.30;;;27.60;53.20;;;;;;4924267;29;20567;-73
2022/07/11 12:17:36;;;;;;;1.53;1.10;;;27.70;53.10;;;;;;4929191;29;20499;-72
2022/07/11 12:20:06;;;;;;;1.20;0.83;;;27.70;53.30;;;;;;4928487;29;20463;-71
2022/07/11 12:22:43;;;;;;;3.23;1.10;;;27.80;53.20;;;;;;4927466;29;20468;-71
2022/07/11 12:25:13;;;;;;;2.40;1.07;;;27.80;53.20;;;;;;4930188;29;20468;-70
2022/07/11 12:27:41;;;;;;;2.20;1.10;;;27.80;53.30;;;;;;4930887;29;20460;-71
2022/07/11 12:30:23;;;;;;;1.50;1.00;;;27.80;53.40;;;;;;4928613;29;20468;-71
2022/07/11 12:33:07;;;;;;;2.37;1.30;;;27.90;53.30;;;;;;4929726;29;20511;-72
2022/07/11 12:35:36;;;;;;;2.53;1.90;;;27.90;53.30;;;;;;4934360;29;20991;-70
2022/07/11 12:38:05;;;;;;;1.73;1.23;;;27.90;53.30;;;;;;4928276;29;20869;-72
2022/07/11 12:40:34;;;;;;;1.37;0.80;;;27.90;53.20;;;;;;4930438;29;20924;-72
2022/07/11 12:44:57;;;;;;;1.57;1.00;;;28.00;53.20;;;;;;4930782;29;20444;-71
2022/07/11 12:46:02;;;;;;;1.87;1.40;;;27.90;53.30;;;;;;4932727;29;20457;-70
2022/07/11 12:48:41;;;;;;;2.17;1.00;;;28.10;53.20;;;;;;4930019;29;20456;-70
2022/07/11 12:51:10;;;;;;;1.73;1.30;;;28.20;53.10;;;;;;4929142;29;20584;-72
2022/07/11 12:53:38;;;;;;;2.23;2.03;;;28.30;52.90;;;;;;4926121;29;20963;-71
2022/07/11 12:56:23;;;;;;;2.80;1.10;;;28.40;52.90;;;;;;4930669;29;20520;-70
2022/07/11 12:58:51;;;;;;;1.77;1.00;;;28.40;52.80;;;;;;4927389;29;20465;-71
2022/07/11 13:01:19;;;;;;;1.80;1.40;;;28.40;52.80;;;;;;4931700;29;20825;-71
2022/07/11 13:03:48;;;;;;;1.77;1.23;;;28.40;52.80;;;;;;4932607;29;20466;-70
2022/07/11 13:06:16;;;;;;;1.50;1.23;;;28.30;52.80;;;;;;4932239;29;20437;-69
2022/07/11 13:08:45;;;;;;;2.20;1.10;;;28.20;53.00;;;;;;4930709;29;20503;-69
2022/07/11 13:11:24;;;;;;;1.30;0.87;;;28.20;53.10;;;;;;4931759;29;20449;-70
2022/07/11 13:13:52;;;;;;;2.00;1.10;;;28.10;53.10;;;;;;4929608;29;20462;-70
2022/07/11 13:16:21;;;;;;;2.17;1.37;;;28.10;53.20;;;;;;4931948;29;20588;-70
2022/07/11 13:18:49;;;;;;;1.80;1.03;;;28.10;53.20;;;;;;4914257;29;20586;-69